Time,TemperatureF,DewpointF,PressureIn,WindDirection,WindDirectionDegrees,WindSpeedMPH,WindSpeedGustMPH,Humidity,HourlyPrecipIn,Conditions,Clouds,dailyrainin,SoftwareType,DateUTC
2013-05-11 00:07:00,49.4,48.0,30.12,North,10,6.0,-999.0,94,-99.99,,,0.00,weatherlink.com 1.10,2013-05-11 07:07:00,
2013-05-11 00:22:00,49.5,48.0,30.12,North,360,6.0,-999.0,94,-99.99,,,0.00,weatherlink.com 1.10,2013-05-11 07:22:00,
2013-05-11 00:37:00,49.5,48.0,30.11,North,360,8.0,-999.0,94,-99.99,,,0.00,weatherlink.com 1.10,2013-05-11 07:37:00,
2013-05-11 00:51:00,49.4,48.0,30.11,North,360,3.0,-999.0,94,-99.99,,,0.00,weatherlink.com 1.10,2013-05-11 07:51:00,
2013-05-11 01:06:00,49.4,48.0,30.10,NNE,13,0.0,-999.0,94,-99.99,,,0.00,weatherlink.com 1.10,2013-05-11 08:06:00,
2013-05-11 01:22:00,49.0,47.0,30.09,North,11,2.0,-999.0,94,-99.99,,,0.00,weatherlink.com 1.10,2013-05-11 08:22:00,
2013-05-11 01:36:00,48.7,47.0,30.09,North,11,3.0,-999.0,94,-99.99,,,0.00,weatherlink.com 1.10,2013-05-11 08:36:00,
2013-05-11 01:51:00,48.8,47.0,30.08,NW,325,2.0,-999.0,94,-99.99,,,0.00,weatherlink.com 1.10,2013-05-11 08:51:00,
2013-05-11 02:07:00,48.7,47.0,30.07,North,10,4.0,-999.0,94,-99.99,,,0.00,weatherlink.com 1.10,2013-05-11 09:07:00,
2013-05-11 02:21:00,48.7,47.0,30.07,North,355,4.0,-999.0,95,-99.99,,,0.00,weatherlink.com 1.10,2013-05-11 09:21:00,
2013-05-11 02:36:00,48.6,47.0,30.06,NNE,16,1.0,-999.0,94,-99.99,,,0.00,weatherlink.com 1.10,2013-05-11 09:36:00,
2013-05-11 02:51:00,48.5,47.0,30.06,NNE,16,0.0,-999.0,94,-99.99,,,0.00,weatherlink.com 1.10,2013-05-11 09:51:00,
2013-05-11 03:07:00,48.5,47.0,30.06,NNE,22,0.0,-999.0,94,-99.99,,,0.00,weatherlink.com 1.10,2013-05-11 10:07:00,
2013-05-11 03:21:00,48.3,47.0,30.06,NNE,21,1.0,-999.0,94,-99.99,,,0.00,weatherlink.com 1.10,2013-05-11 10:21:00,
2013-05-11 03:36:00,48.3,47.0,30.06,NNE,28,2.0,-999.0,94,-99.99,,,0.00,weatherlink.com 1.10,2013-05-11 10:36:00,
2013-05-11 03:51:00,48.1,47.0,30.06,North,5,1.0,-999.0,95,-99.99,,,0.00,weatherlink.com 1.10,2013-05-11 10:51:00,
2013-05-11 04:06:00,47.9,46.0,30.05,North,5,2.0,-999.0,94,-99.99,,,0.00,weatherlink.com 1.10,2013-05-11 11:06:00,
2013-05-11 04:21:00,47.8,47.0,30.04,North,5,0.0,-999.0,95,-99.99,,,0.00,weatherlink.com 1.10,2013-05-11 11:21:00,
2013-05-11 04:36:00,47.7,46.0,30.04,North,5,3.0,-999.0,95,-99.99,,,0.00,weatherlink.com 1.10,2013-05-11 11:36:00,
2013-05-11 04:52:00,47.4,46.0,30.03,NNE,22,0.0,-999.0,95,-99.99,,,0.00,weatherlink.com 1.10,2013-05-11 11:52:00,
2013-05-11 05:07:00,46.9,45.0,30.01,NNE,22,0.0,-999.0,94,-99.99,,,0.00,weatherlink.com 1.10,2013-05-11 12:07:00,
2013-05-11 05:22:00,46.1,45.0,30.01,NE,55,2.0,-999.0,94,-99.99,,,0.00,weatherlink.com 1.10,2013-05-11 12:22:00,
2013-05-11 05:36:00,45.8,44.0,30.03,SSW,202,5.0,-999.0,94,-99.99,,,0.00,weatherlink.com 1.10,2013-05-11 12:36:00,
2013-05-11 05:52:00,45.9,45.0,30.03,SE,146,0.0,-999.0,95,-99.99,,,0.00,weatherlink.com 1.10,2013-05-11 12:52:00,
2013-05-11 06:07:00,46.0,45.0,30.03,SE,141,2.0,-999.0,95,-99.99,,,0.00,weatherlink.com 1.10,2013-05-11 13:07:00,
2013-05-11 06:22:00,46.1,45.0,30.04,SSE,160,2.0,-999.0,95,-99.99,,,0.00,weatherlink.com 1.10,2013-05-11 13:22:00,
2013-05-11 06:36:00,46.4,45.0,30.05,SSE,161,5.0,-999.0,95,-99.99,,,0.00,weatherlink.com 1.10,2013-05-11 13:36:00,
2013-05-11 06:52:00,46.8,46.0,30.05,SSE,161,0.0,-999.0,95,-99.99,,,0.00,weatherlink.com 1.10,2013-05-11 13:52:00,
2013-05-11 07:06:00,47.3,46.0,30.04,SSE,161,2.0,-999.0,96,-99.99,,,0.00,weatherlink.com 1.10,2013-05-11 14:06:00,
2013-05-11 07:21:00,47.6,46.0,30.04,South,175,4.0,-999.0,95,-99.99,,,0.00,weatherlink.com 1.10,2013-05-11 14:21:00,
2013-05-11 07:36:00,47.8,47.0,30.04,South,170,0.0,-999.0,95,-99.99,,,0.00,weatherlink.com 1.10,2013-05-11 14:36:00,
2013-05-11 07:52:00,48.8,48.0,30.03,South,170,5.0,-999.0,96,-99.99,,,0.00,weatherlink.com 1.10,2013-05-11 14:52:00,
2013-05-11 08:07:00,49.5,48.0,30.04,SE,137,2.0,-999.0,96,-99.99,,,0.00,weatherlink.com 1.10,2013-05-11 15:07:00,
2013-05-11 08:22:00,50.2,49.0,30.03,South,169,4.0,-999.0,96,-99.99,,,0.00,weatherlink.com 1.10,2013-05-11 15:22:00,
2013-05-11 08:37:00,50.6,49.0,30.05,SSE,148,5.0,-999.0,95,-99.99,,,0.00,weatherlink.com 1.10,2013-05-11 15:37:00,
2013-05-11 08:52:00,49.9,49.0,30.06,SSW,201,3.0,-999.0,95,-99.99,,,0.00,weatherlink.com 1.10,2013-05-11 15:52:00,
2013-05-11 09:07:00,49.0,48.0,30.07,South,187,4.0,-999.0,95,-99.99,,,0.00,weatherlink.com 1.10,2013-05-11 16:07:00,
2013-05-11 09:22:00,48.7,47.0,30.07,SSW,197,2.0,-999.0,95,-99.99,,,0.00,weatherlink.com 1.10,2013-05-11 16:22:00,
2013-05-11 09:37:00,49.5,48.0,30.07,SSW,197,3.0,-999.0,95,-99.99,,,0.00,weatherlink.com 1.10,2013-05-11 16:37:00,
2013-05-11 09:52:00,50.2,49.0,30.07,SSW,198,3.0,-999.0,95,-99.99,,,0.00,weatherlink.com 1.10,2013-05-11 16:52:00,
2013-05-11 10:07:00,49.9,48.0,30.08,SSW,199,4.0,-999.0,94,-99.99,,,0.00,weatherlink.com 1.10,2013-05-11 17:07:00,
2013-05-11 10:21:00,50.2,49.0,30.09,SW,232,5.0,-999.0,94,-99.99,,,0.00,weatherlink.com 1.10,2013-05-11 17:21:00,
2013-05-11 10:36:00,50.1,48.0,30.09,SW,227,3.0,-999.0,93,-99.99,,,0.00,weatherlink.com 1.10,2013-05-11 17:36:00,
2013-05-11 10:51:00,51.0,49.0,30.09,SW,227,0.0,-999.0,94,-99.99,,,0.00,weatherlink.com 1.10,2013-05-11 17:51:00,
2013-05-11 11:06:00,52.9,50.0,30.08,West,267,2.0,-999.0,91,-99.99,,,0.00,weatherlink.com 1.10,2013-05-11 18:06:00,
2013-05-11 11:21:00,52.4,50.0,30.09,WSW,256,4.0,-999.0,91,-99.99,,,0.00,weatherlink.com 1.10,2013-05-11 18:21:00,
2013-05-11 11:36:00,53.5,51.0,30.09,West,279,5.0,-999.0,90,-99.99,,,0.00,weatherlink.com 1.10,2013-05-11 18:36:00,
2013-05-11 11:51:00,54.1,51.0,30.09,West,263,4.0,-999.0,89,-99.99,,,0.00,weatherlink.com 1.10,2013-05-11 18:51:00,
2013-05-11 12:06:00,54.9,52.0,30.08,West,260,3.0,-999.0,88,-99.99,,,0.00,weatherlink.com 1.10,2013-05-11 19:06:00,
2013-05-11 12:21:00,54.3,51.0,30.08,WSW,246,1.0,-999.0,88,-99.99,,,0.00,weatherlink.com 1.10,2013-05-11 19:21:00,
2013-05-11 12:36:00,54.7,52.0,30.07,WSW,251,4.0,-999.0,89,-99.99,,,0.00,weatherlink.com 1.10,2013-05-11 19:36:00,
2013-05-11 12:51:00,56.0,53.0,30.07,WSW,251,1.0,-999.0,89,-99.99,,,0.00,weatherlink.com 1.10,2013-05-11 19:51:00,
2013-05-11 13:06:00,60.2,55.0,30.07,WSW,251,3.0,-999.0,84,-99.99,,,0.00,weatherlink.com 1.10,2013-05-11 20:06:00,
2013-05-11 13:21:00,59.5,53.0,30.07,West,269,4.0,-999.0,80,-99.99,,,0.00,weatherlink.com 1.10,2013-05-11 20:21:00,
2013-05-11 13:36:00,56.7,52.0,30.07,West,277,7.0,-999.0,83,-99.99,,,0.00,weatherlink.com 1.10,2013-05-11 20:36:00,
2013-05-11 13:51:00,56.2,52.0,30.08,WNW,283,5.0,-999.0,85,-99.99,,,0.00,weatherlink.com 1.10,2013-05-11 20:51:00,
2013-05-11 14:06:00,56.0,52.0,30.07,WNW,287,6.0,-999.0,85,-99.99,,,0.00,weatherlink.com 1.10,2013-05-11 21:06:00,
2013-05-11 14:21:00,54.6,51.0,30.07,West,259,4.0,-999.0,86,-99.99,,,0.00,weatherlink.com 1.10,2013-05-11 21:21:00,
2013-05-11 14:36:00,54.3,51.0,30.08,West,267,4.0,-999.0,87,-99.99,,,0.00,weatherlink.com 1.10,2013-05-11 21:36:00,
2013-05-11 14:51:00,53.5,50.0,30.07,NW,317,5.0,-999.0,89,-99.99,,,0.00,weatherlink.com 1.10,2013-05-11 21:51:00,
2013-05-11 15:06:00,53.7,51.0,30.07,WNW,296,6.0,-999.0,89,-99.99,,,0.00,weatherlink.com 1.10,2013-05-11 22:06:00,
2013-05-11 15:21:00,53.0,50.0,30.08,WNW,290,5.0,-999.0,90,-99.99,,,0.00,weatherlink.com 1.10,2013-05-11 22:21:00,
2013-05-11 15:36:00,52.5,50.0,30.07,NW,307,6.0,-999.0,91,-99.99,,,0.00,weatherlink.com 1.10,2013-05-11 22:36:00,
2013-05-11 15:51:00,52.5,50.0,30.06,WNW,292,8.0,-999.0,91,-99.99,,,0.00,weatherlink.com 1.10,2013-05-11 22:51:00,
2013-05-11 16:06:00,51.7,49.0,30.05,WNW,291,7.0,-999.0,91,-99.99,,,0.00,weatherlink.com 1.10,2013-05-11 23:06:00,
2013-05-11 16:21:00,51.7,50.0,30.05,NW,312,6.0,-999.0,92,-99.99,,,0.00,weatherlink.com 1.10,2013-05-11 23:21:00,
2013-05-11 16:36:00,51.8,50.0,30.05,NW,314,3.0,-999.0,93,-99.99,,,0.00,weatherlink.com 1.10,2013-05-11 23:36:00,
2013-05-11 16:51:00,52.0,50.0,30.05,NNW,327,6.0,-999.0,93,-99.99,,,0.00,weatherlink.com 1.10,2013-05-11 23:51:00,
2013-05-11 17:06:00,51.9,50.0,30.05,NW,309,5.0,-999.0,93,-99.99,,,0.00,weatherlink.com 1.10,2013-05-12 00:06:00,
2013-05-11 17:21:00,51.7,50.0,30.07,NW,311,8.0,-999.0,93,-99.99,,,0.00,weatherlink.com 1.10,2013-05-12 00:21:00,
2013-05-11 17:36:00,51.8,50.0,30.07,NNE,19,5.0,-999.0,93,-99.99,,,0.00,weatherlink.com 1.10,2013-05-12 00:36:00,
2013-05-11 17:51:00,53.3,52.0,30.06,NNE,33,4.0,-999.0,94,-99.99,,,0.00,weatherlink.com 1.10,2013-05-12 00:51:00,
2013-05-11 18:06:00,56.5,54.0,30.06,WNW,302,6.0,-999.0,90,-99.99,,,0.00,weatherlink.com 1.10,2013-05-12 01:06:00,
2013-05-11 18:21:00,52.3,50.0,30.06,NNW,346,5.0,-999.0,90,-99.99,,,0.00,weatherlink.com 1.10,2013-05-12 01:21:00,
2013-05-11 18:36:00,52.3,50.0,30.06,NNW,346,8.0,-999.0,90,-99.99,,,0.00,weatherlink.com 1.10,2013-05-12 01:36:00,
2013-05-11 18:51:00,51.1,49.0,30.06,North,360,4.0,-999.0,92,-99.99,,,0.00,weatherlink.com 1.10,2013-05-12 01:51:00,
2013-05-11 19:06:00,50.5,48.0,30.05,NNW,339,9.0,-999.0,92,-99.99,,,0.00,weatherlink.com 1.10,2013-05-12 02:06:00,
2013-05-11 19:21:00,50.1,48.0,30.06,NNE,12,8.0,-999.0,93,-99.99,,,0.00,weatherlink.com 1.10,2013-05-12 02:21:00,
2013-05-11 19:36:00,49.6,48.0,30.06,North,355,6.0,-999.0,93,-99.99,,,0.00,weatherlink.com 1.10,2013-05-12 02:36:00,
2013-05-11 19:51:00,49.4,48.0,30.07,NW,319,11.0,-999.0,93,-99.99,,,0.00,weatherlink.com 1.10,2013-05-12 02:51:00,
2013-05-11 20:06:00,49.2,48.0,30.08,North,360,5.0,-999.0,94,-99.99,,,0.00,weatherlink.com 1.10,2013-05-12 03:06:00,
2013-05-11 20:21:00,49.5,48.0,30.09,North,355,10.0,-999.0,94,-99.99,,,0.00,weatherlink.com 1.10,2013-05-12 03:21:00,
2013-05-11 20:36:00,49.4,48.0,30.09,North,9,3.0,-999.0,94,-99.99,,,0.00,weatherlink.com 1.10,2013-05-12 03:36:00,
2013-05-11 20:51:00,49.3,48.0,30.10,North,360,2.0,-999.0,94,-99.99,,,0.00,weatherlink.com 1.10,2013-05-12 03:51:00,
2013-05-11 21:06:00,50.4,49.0,30.09,NNE,24,7.0,-999.0,95,-99.99,,,0.00,weatherlink.com 1.10,2013-05-12 04:06:00,
2013-05-11 21:21:00,51.7,50.0,30.10,NNE,21,3.0,-999.0,94,-99.99,,,0.00,weatherlink.com 1.10,2013-05-12 04:21:00,
2013-05-11 21:36:00,54.0,53.0,30.09,NNE,13,7.0,-999.0,95,-99.99,,,0.00,weatherlink.com 1.10,2013-05-12 04:36:00,
2013-05-11 21:51:00,55.6,54.0,30.09,NE,51,3.0,-999.0,94,-99.99,,,0.00,weatherlink.com 1.10,2013-05-12 04:51:00,
2013-05-11 22:06:00,56.4,54.0,30.09,NW,321,8.0,-999.0,92,-99.99,,,0.00,weatherlink.com 1.10,2013-05-12 05:06:00,
2013-05-11 22:21:00,56.3,54.0,30.10,North,5,3.0,-999.0,90,-99.99,,,0.00,weatherlink.com 1.10,2013-05-12 05:21:00,
2013-05-11 22:36:00,55.8,53.0,30.09,NW,320,5.0,-999.0,89,-99.99,,,0.00,weatherlink.com 1.10,2013-05-12 05:36:00,
2013-05-11 22:51:00,55.0,52.0,30.09,North,5,2.0,-999.0,89,-99.99,,,0.00,weatherlink.com 1.10,2013-05-12 05:51:00,
2013-05-11 23:06:00,54.6,52.0,30.09,NNE,30,2.0,-999.0,90,-99.99,,,0.00,weatherlink.com 1.10,2013-05-12 06:06:00,
2013-05-11 23:21:00,54.1,51.0,30.08,NE,42,5.0,-999.0,90,-99.99,,,0.00,weatherlink.com 1.10,2013-05-12 06:21:00,
2013-05-11 23:36:00,53.3,51.0,30.08,North,5,2.0,-999.0,90,-99.99,,,0.00,weatherlink.com 1.10,2013-05-12 06:36:00,
2013-05-11 23:51:00,52.3,50.0,30.07,NNE,32,1.0,-999.0,90,-99.99,,,0.00,weatherlink.com 1.10,2013-05-12 06:51:00,